sensor_id;sensor_type;location;lat;lon;timestamp;P1;durP1;ratioP1;P2;durP2;ratioP2
10440;SDS011;5268;49.346;9.522;2023-08-20T03:08:36;11.48;;;9.55;;
10440;SDS011;5268;49.346;9.522;2023-08-20T03:13:38;12.15;;;9.30;;
10440;SDS011;5268;49.346;9.522;2023-08-20T03:18:40;10.85;;;9.10;;
10440;SDS011;5268;49.346;9.522;2023-08-20T03:23:43;9.52;;;8.70;;
10440;SDS011;5268;49.346;9.522;2023-08-20T03:28:45;10.38;;;9.35;;
10440;SDS011;5268;49.346;9.522;2023-08-20T03:33:48;9.75;;;8.68;;
10440;SDS011;5268;49.346;9.522;2023-08-20T03:38:51;10.65;;;9.23;;
10440;SDS011;5268;49.346;9.522;2023-08-20T03:43:53;10.63;;;9.52;;
10440;SDS011;5268;49.346;9.522;2023-08-20T03:48:56;10.55;;;9.38;;
10440;SDS011;5268;49.346;9.522;2023-08-20T03:53:59;9.68;;;8.88;;
10440;SDS011;5268;49.346;9.522;2023-08-20T03:59:01;10.45;;;8.98;;
10440;SDS011;5268;49.346;9.522;2023-08-20T04:04:03;10.60;;;9.38;;
10440;SDS011;5268;49.346;9.522;2023-08-20T04:09:07;9.95;;;8.80;;
10440;SDS011;5268;49.346;9.522;2023-08-20T04:14:11;10.13;;;9.13;;
10440;SDS011;5268;49.346;9.522;2023-08-20T04:19:13;9.90;;;8.90;;
10440;SDS011;5268;49.346;9.522;2023-08-20T04:24:16;10.65;;;9.52;;
10440;SDS011;5268;49.346;9.522;2023-08-20T04:29:18;11.15;;;9.57;;
10440;SDS011;5268;49.346;9.522;2023-08-20T04:34:20;11.95;;;9.50;;
10440;SDS011;5268;49.346;9.522;2023-08-20T04:39:24;11.63;;;8.77;;
10440;SDS011;5268;49.346;9.522;2023-08-20T04:44:26;9.25;;;8.35;;
10440;SDS011;5268;49.346;9.522;2023-08-20T04:49:28;9.65;;;8.65;;
10440;SDS011;5268;49.346;9.522;2023-08-20T04:54:31;9.10;;;7.72;;
10440;SDS011;5268;49.346;9.522;2023-08-20T04:59:33;8.68;;;7.88;;
10440;SDS011;5268;49.346;9.522;2023-08-20T05:04:35;9.55;;;8.55;;
10440;SDS011;5268;49.346;9.522;2023-08-20T05:09:38;10.35;;;8.75;;
10440;SDS011;5268;49.346;9.522;2023-08-20T05:14:40;9.27;;;8.55;;
10440;SDS011;5268;49.346;9.522;2023-08-20T05:19:42;8.88;;;8.00;;
10440;SDS011;5268;49.346;9.522;2023-08-20T05:24:46;12.02;;;8.48;;
10440;SDS011;5268;49.346;9.522;2023-08-20T05:29:48;9.88;;;8.88;;
10440;SDS011;5268;49.346;9.522;2023-08-20T05:34:50;9.93;;;8.65;;
10440;SDS011;5268;49.346;9.522;2023-08-20T05:39:53;9.80;;;8.80;;
10440;SDS011;5268;49.346;9.522;2023-08-20T05:44:55;10.23;;;9.23;;
10440;SDS011;5268;49.346;9.522;2023-08-20T05:49:57;10.18;;;9.13;;
10440;SDS011;5268;49.346;9.522;2023-08-20T05:55:01;10.82;;;9.35;;
10440;SDS011;5268;49.346;9.522;2023-08-20T06:00:05;12.05;;;10.70;;
10440;SDS011;5268;49.346;9.522;2023-08-20T06:05:09;10.45;;;9.45;;
10440;SDS011;5268;49.346;9.522;2023-08-20T06:10:13;11.57;;;10.30;;
10440;SDS011;5268;49.346;9.522;2023-08-20T06:15:15;10.23;;;9.25;;
10440;SDS011;5268;49.346;9.522;2023-08-20T06:20:17;10.00;;;8.93;;
10440;SDS011;5268;49.346;9.522;2023-08-20T06:25:20;10.70;;;9.63;;
10440;SDS011;5268;49.346;9.522;2023-08-20T06:30:22;10.50;;;9.50;;
10440;SDS011;5268;49.346;9.522;2023-08-20T06:35:24;10.77;;;9.77;;
10440;SDS011;5268;49.346;9.522;2023-08-20T06:40:28;11.25;;;10.13;;
10440;SDS011;5268;49.346;9.522;2023-08-20T06:45:30;13.38;;;10.95;;
10440;SDS011;5268;49.346;9.522;2023-08-20T06:50:32;11.52;;;10.43;;
10440;SDS011;5268;49.346;9.522;2023-08-20T06:55:36;10.88;;;9.82;;
10440;SDS011;5268;49.346;9.522;2023-08-20T07:00:38;12.40;;;11.20;;
10440;SDS011;5268;49.346;9.522;2023-08-20T07:05:40;12.48;;;11.25;;
10440;SDS011;5268;49.346;9.522;2023-08-20T07:10:43;11.38;;;9.88;;
10440;SDS011;5268;49.346;9.522;2023-08-20T07:15:45;13.40;;;10.57;;
10440;SDS011;5268;49.346;9.522;2023-08-20T07:20:47;11.23;;;10.18;;
10440;SDS011;5268;49.346;9.522;2023-08-20T07:25:50;11.23;;;9.98;;
10440;SDS011;5268;49.346;9.522;2023-08-20T07:30:53;11.32;;;10.23;;
10440;SDS011;5268;49.346;9.522;2023-08-20T07:35:55;11.75;;;9.98;;
10440;SDS011;5268;49.346;9.522;2023-08-20T07:40:58;10.88;;;9.75;;
10440;SDS011;5268;49.346;9.522;2023-08-20T07:46:00;10.70;;;9.60;;
10440;SDS011;5268;49.346;9.522;2023-08-20T07:51:02;10.88;;;9.88;;
10440;SDS011;5268;49.346;9.522;2023-08-20T07:56:06;11.85;;;9.23;;
10440;SDS011;5268;49.346;9.522;2023-08-20T08:01:09;9.85;;;8.85;;
10440;SDS011;5268;49.346;9.522;2023-08-20T08:06:10;10.90;;;9.07;;
10440;SDS011;5268;49.346;9.522;2023-08-20T08:11:14;10.18;;;9.20;;
10440;SDS011;5268;49.346;9.522;2023-08-20T08:16:16;10.48;;;8.90;;
10440;SDS011;5268;49.346;9.522;2023-08-20T08:21:18;9.68;;;8.30;;
10440;SDS011;5268;49.346;9.522;2023-08-20T08:26:21;10.65;;;8.60;;
10440;SDS011;5268;49.346;9.522;2023-08-20T08:31:23;9.27;;;8.32;;
10440;SDS011;5268;49.346;9.522;2023-08-20T08:36:25;8.82;;;7.93;;
10440;SDS011;5268;49.346;9.522;2023-08-20T08:41:28;8.65;;;7.65;;
10440;SDS011;5268;49.346;9.522;2023-08-20T08:46:32;8.40;;;7.43;;
10440;SDS011;5268;49.346;9.522;2023-08-20T08:51:36;8.07;;;7.10;;
10440;SDS011;5268;49.346;9.522;2023-08-20T08:56:41;7.00;;;6.40;;
10440;SDS011;5268;49.346;9.522;2023-08-20T09:01:43;7.90;;;7.15;;
10440;SDS011;5268;49.346;9.522;2023-08-20T09:06:45;7.82;;;6.43;;
10440;SDS011;5268;49.346;9.522;2023-08-20T09:11:49;8.43;;;7.40;;
10440;SDS011;5268;49.346;9.522;2023-08-20T09:16:55;9.00;;;7.90;;
10440;SDS011;5268;49.346;9.522;2023-08-20T09:21:58;7.45;;;6.75;;
10440;SDS011;5268;49.346;9.522;2023-08-20T09:27:04;9.07;;;7.03;;
10440;SDS011;5268;49.346;9.522;2023-08-20T09:32:06;7.50;;;6.80;;
10440;SDS011;5268;49.346;9.522;2023-08-20T09:37:08;7.25;;;6.55;;
10440;SDS011;5268;49.346;9.522;2023-08-20T09:42:12;7.20;;;6.45;;
10440;SDS011;5268;49.346;9.522;2023-08-20T09:47:16;8.00;;;6.00;;
10440;SDS011;5268;49.346;9.522;2023-08-20T09:52:20;7.35;;;6.32;;
10440;SDS011;5268;49.346;9.522;2023-08-20T09:57:35;8.10;;;6.40;;
10440;SDS011;5268;49.346;9.522;2023-08-20T10:02:40;7.47;;;6.35;;
10440;SDS011;5268;49.346;9.522;2023-08-20T10:07:42;7.03;;;6.32;;
10440;SDS011;5268;49.346;9.522;2023-08-20T10:12:48;6.80;;;6.20;;
10440;SDS011;5268;49.346;9.522;2023-08-20T10:17:50;7.15;;;6.45;;
10440;SDS011;5268;49.346;9.522;2023-08-20T10:22:52;7.00;;;6.35;;
10440;SDS011;5268;49.346;9.522;2023-08-20T10:28:10;6.30;;;5.70;;
10440;SDS011;5268;49.346;9.522;2023-08-20T10:33:13;6.97;;;6.35;;
10440;SDS011;5268;49.346;9.522;2023-08-20T10:38:18;6.78;;;5.88;;
10440;SDS011;5268;49.346;9.522;2023-08-20T10:43:25;7.90;;;5.85;;
10440;SDS011;5268;49.346;9.522;2023-08-20T10:48:29;7.03;;;6.25;;
10440;SDS011;5268;49.346;9.522;2023-08-20T10:53:31;8.52;;;5.70;;
10440;SDS011;5268;49.346;9.522;2023-08-20T10:58:35;6.53;;;5.32;;
10440;SDS011;5268;49.346;9.522;2023-08-20T11:03:39;6.68;;;5.80;;
10440;SDS011;5268;49.346;9.522;2023-08-20T11:08:42;9.43;;;5.50;;
10440;SDS011;5268;49.346;9.522;2023-08-20T11:13:46;6.50;;;5.30;;
10440;SDS011;5268;49.346;9.522;2023-08-20T11:18:48;6.43;;;5.22;;
10440;SDS011;5268;49.346;9.522;2023-08-20T11:23:50;7.07;;;5.35;;
10440;SDS011;5268;49.346;9.522;2023-08-20T11:28:56;5.88;;;5.13;;
10440;SDS011;5268;49.346;9.522;2023-08-20T11:33:58;7.38;;;5.55;;
10440;SDS011;5268;49.346;9.522;2023-08-20T11:39:00;6.22;;;5.40;;
10440;SDS011;5268;49.346;9.522;2023-08-20T11:44:03;6.45;;;5.30;;
10440;SDS011;5268;49.346;9.522;2023-08-20T11:49:07;5.82;;;5.22;;
10440;SDS011;5268;49.346;9.522;2023-08-20T11:54:10;5.70;;;5.20;;
10440;SDS011;5268;49.346;9.522;2023-08-20T11:59:15;5.38;;;4.80;;
10440;SDS011;5268;49.346;9.522;2023-08-20T12:04:18;9.27;;;5.30;;
10440;SDS011;5268;49.346;9.522;2023-08-20T12:09:20;6.20;;;5.20;;
10440;SDS011;5268;49.346;9.522;2023-08-20T12:14:24;6.03;;;5.03;;
10440;SDS011;5268;49.346;9.522;2023-08-20T12:19:26;6.65;;;5.68;;
10440;SDS011;5268;49.346;9.522;2023-08-20T12:24:28;7.00;;;5.65;;
10440;SDS011;5268;49.346;9.522;2023-08-20T12:29:32;7.97;;;5.30;;
10440;SDS011;5268;49.346;9.522;2023-08-20T12:34:34;8.35;;;5.05;;
10440;SDS011;5268;49.346;9.522;2023-08-20T12:39:36;5.60;;;4.88;;
10440;SDS011;5268;49.346;9.522;2023-08-20T12:44:39;5.85;;;4.93;;
10440;SDS011;5268;49.346;9.522;2023-08-20T12:49:41;6.40;;;5.43;;
10440;SDS011;5268;49.346;9.522;2023-08-20T12:54:43;5.60;;;5.10;;
10440;SDS011;5268;49.346;9.522;2023-08-20T12:59:47;6.40;;;4.90;;
10440;SDS011;5268;49.346;9.522;2023-08-20T13:04:49;5.97;;;4.90;;
10440;SDS011;5268;49.346;9.522;2023-08-20T13:09:52;5.65;;;5.03;;
10440;SDS011;5268;49.346;9.522;2023-08-20T13:14:56;6.30;;;5.15;;
10440;SDS011;5268;49.346;9.522;2023-08-20T13:19:58;9.00;;;4.60;;
10440;SDS011;5268;49.346;9.522;2023-08-20T13:25:00;6.30;;;4.15;;
10440;SDS011;5268;49.346;9.522;2023-08-20T13:30:04;6.60;;;4.60;;
10440;SDS011;5268;49.346;9.522;2023-08-20T13:35:08;5.10;;;4.63;;
10440;SDS011;5268;49.346;9.522;2023-08-20T13:40:10;6.95;;;4.78;;
10440;SDS011;5268;49.346;9.522;2023-08-20T13:45:14;6.97;;;4.60;;
10440;SDS011;5268;49.346;9.522;2023-08-20T13:50:16;5.93;;;4.75;;
10440;SDS011;5268;49.346;9.522;2023-08-20T13:55:18;6.43;;;4.72;;
10440;SDS011;5268;49.346;9.522;2023-08-20T14:00:22;8.15;;;5.00;;
10440;SDS011;5268;49.346;9.522;2023-08-20T14:05:25;5.28;;;4.78;;
10440;SDS011;5268;49.346;9.522;2023-08-20T14:10:29;6.28;;;4.57;;
10440;SDS011;5268;49.346;9.522;2023-08-20T14:15:32;7.50;;;5.03;;
10440;SDS011;5268;49.346;9.522;2023-08-20T14:20:34;6.20;;;4.78;;
10440;SDS011;5268;49.346;9.522;2023-08-20T14:25:36;8.60;;;4.90;;
10440;SDS011;5268;49.346;9.522;2023-08-20T14:30:42;5.00;;;4.50;;
10440;SDS011;5268;49.346;9.522;2023-08-20T14:35:45;5.28;;;4.78;;
10440;SDS011;5268;49.346;9.522;2023-08-20T14:40:47;5.35;;;4.60;;
10440;SDS011;5268;49.346;9.522;2023-08-20T14:45:51;5.22;;;4.72;;
10440;SDS011;5268;49.346;9.522;2023-08-20T14:50:54;4.85;;;4.28;;
10440;SDS011;5268;49.346;9.522;2023-08-20T14:55:56;6.68;;;4.68;;
10440;SDS011;5268;49.346;9.522;2023-08-20T15:01:00;5.95;;;4.63;;
10440;SDS011;5268;49.346;9.522;2023-08-20T15:06:04;6.15;;;4.57;;
10440;SDS011;5268;49.346;9.522;2023-08-20T15:11:07;6.20;;;4.57;;
10440;SDS011;5268;49.346;9.522;2023-08-20T15:16:10;5.00;;;4.50;;
10440;SDS011;5268;49.346;9.522;2023-08-20T15:21:12;7.63;;;4.55;;
10440;SDS011;5268;49.346;9.522;2023-08-20T15:26:14;5.80;;;4.25;;
10440;SDS011;5268;49.346;9.522;2023-08-20T15:31:18;7.43;;;4.57;;
10440;SDS011;5268;49.346;9.522;2023-08-20T15:36:20;5.00;;;4.45;;
10440;SDS011;5268;49.346;9.522;2023-08-20T15:41:22;5.80;;;4.30;;
10440;SDS011;5268;49.346;9.522;2023-08-20T15:46:26;5.78;;;4.18;;
10440;SDS011;5268;49.346;9.522;2023-08-20T15:51:28;9.23;;;4.45;;
10440;SDS011;5268;49.346;9.522;2023-08-20T15:56:30;9.80;;;4.70;;
10440;SDS011;5268;49.346;9.522;2023-08-20T16:01:33;5.10;;;4.57;;
10440;SDS011;5268;49.346;9.522;2023-08-20T16:06:35;7.75;;;4.38;;
10440;SDS011;5268;49.346;9.522;2023-08-20T16:11:37;5.47;;;4.70;;
10440;SDS011;5268;49.346;9.522;2023-08-20T16:16:41;5.82;;;4.60;;
10440;SDS011;5268;49.346;9.522;2023-08-20T16:21:42;7.13;;;4.60;;
10440;SDS011;5268;49.346;9.522;2023-08-20T16:26:44;5.75;;;4.70;;
10440;SDS011;5268;49.346;9.522;2023-08-20T16:31:48;5.25;;;4.75;;
10440;SDS011;5268;49.346;9.522;2023-08-20T16:36:50;7.55;;;4.78;;
10440;SDS011;5268;49.346;9.522;2023-08-20T16:41:52;7.28;;;4.55;;
10440;SDS011;5268;49.346;9.522;2023-08-20T16:46:55;5.82;;;4.88;;
10440;SDS011;5268;49.346;9.522;2023-08-20T16:51:57;6.47;;;5.03;;
10440;SDS011;5268;49.346;9.522;2023-08-20T16:57:00;5.25;;;4.75;;
10440;SDS011;5268;49.346;9.522;2023-08-20T17:02:04;5.78;;;5.25;;
10440;SDS011;5268;49.346;9.522;2023-08-20T17:07:06;5.85;;;5.35;;
10440;SDS011;5268;49.346;9.522;2023-08-20T17:12:08;6.45;;;5.28;;
10440;SDS011;5268;49.346;9.522;2023-08-20T17:17:11;6.32;;;5.10;;
10440;SDS011;5268;49.346;9.522;2023-08-20T17:22:13;7.28;;;5.32;;
10440;SDS011;5268;49.346;9.522;2023-08-20T17:27:15;6.05;;;5.40;;
10440;SDS011;5268;49.346;9.522;2023-08-20T17:32:19;6.25;;;5.65;;
10440;SDS011;5268;49.346;9.522;2023-08-20T17:37:22;5.32;;;4.78;;
10440;SDS011;5268;49.346;9.522;2023-08-20T17:42:24;5.53;;;4.95;;
10440;SDS011;5268;49.346;9.522;2023-08-20T17:47:27;5.43;;;4.93;;
10440;SDS011;5268;49.346;9.522;2023-08-20T17:52:29;4.82;;;4.35;;
10440;SDS011;5268;49.346;9.522;2023-08-20T17:57:31;7.43;;;4.68;;
10440;SDS011;5268;49.346;9.522;2023-08-20T18:02:34;6.05;;;4.80;;
10440;SDS011;5268;49.346;9.522;2023-08-20T18:07:37;5.88;;;4.43;;
10440;SDS011;5268;49.346;9.522;2023-08-20T18:12:40;6.57;;;4.68;;
10440;SDS011;5268;49.346;9.522;2023-08-20T18:17:43;5.00;;;4.57;;
10440;SDS011;5268;49.346;9.522;2023-08-20T18:22:45;5.10;;;4.60;;
10440;SDS011;5268;49.346;9.522;2023-08-20T18:27:47;5.75;;;4.72;;
10440;SDS011;5268;49.346;9.522;2023-08-20T18:32:50;5.38;;;4.88;;
10440;SDS011;5268;49.346;9.522;2023-08-20T18:37:52;4.90;;;4.32;;
10440;SDS011;5268;49.346;9.522;2023-08-20T18:42:54;5.35;;;4.65;;
10440;SDS011;5268;49.346;9.522;2023-08-20T18:47:58;6.70;;;4.90;;
10440;SDS011;5268;49.346;9.522;2023-08-20T18:53:00;6.22;;;4.22;;
10440;SDS011;5268;49.346;9.522;2023-08-20T18:58:02;5.00;;;4.60;;
10440;SDS011;5268;49.346;9.522;2023-08-20T19:03:05;6.13;;;5.00;;
10440;SDS011;5268;49.346;9.522;2023-08-20T19:08:07;6.90;;;5.22;;
10440;SDS011;5268;49.346;9.522;2023-08-20T19:13:09;5.82;;;4.60;;
10440;SDS011;5268;49.346;9.522;2023-08-20T19:18:13;5.70;;;5.03;;
10440;SDS011;5268;49.346;9.522;2023-08-20T19:23:16;5.72;;;5.10;;
10440;SDS011;5268;49.346;9.522;2023-08-20T19:28:18;5.95;;;4.80;;
10440;SDS011;5268;49.346;9.522;2023-08-20T19:33:22;5.22;;;4.72;;
10440;SDS011;5268;49.346;9.522;2023-08-20T19:38:24;5.55;;;4.72;;
10440;SDS011;5268;49.346;9.522;2023-08-20T19:43:26;6.00;;;5.30;;
10440;SDS011;5268;49.346;9.522;2023-08-20T19:48:29;6.30;;;5.70;;
10440;SDS011;5268;49.346;9.522;2023-08-20T19:53:31;7.03;;;5.40;;
10440;SDS011;5268;49.346;9.522;2023-08-20T19:58:33;6.90;;;5.30;;
10440;SDS011;5268;49.346;9.522;2023-08-20T20:03:36;5.70;;;5.10;;
10440;SDS011;5268;49.346;9.522;2023-08-20T20:08:38;6.07;;;4.93;;
10440;SDS011;5268;49.346;9.522;2023-08-20T20:13:40;6.30;;;5.70;;
10440;SDS011;5268;49.346;9.522;2023-08-20T20:18:43;6.93;;;5.60;;
10440;SDS011;5268;49.346;9.522;2023-08-20T20:23:46;6.35;;;5.43;;
10440;SDS011;5268;49.346;9.522;2023-08-20T20:28:48;5.32;;;4.78;;
10440;SDS011;5268;49.346;9.522;2023-08-20T20:33:51;6.18;;;4.88;;
10440;SDS011;5268;49.346;9.522;2023-08-20T20:38:53;5.97;;;5.40;;
10440;SDS011;5268;49.346;9.522;2023-08-20T20:43:55;6.18;;;5.53;;
10440;SDS011;5268;49.346;9.522;2023-08-20T20:48:58;7.57;;;5.70;;
10440;SDS011;5268;49.346;9.522;2023-08-20T20:54:00;5.78;;;5.22;;
10440;SDS011;5268;49.346;9.522;2023-08-20T20:59:02;8.23;;;5.57;;
10440;SDS011;5268;49.346;9.522;2023-08-20T21:04:06;5.80;;;5.15;;
10440;SDS011;5268;49.346;9.522;2023-08-20T21:09:08;9.30;;;5.45;;
10440;SDS011;5268;49.346;9.522;2023-08-20T21:14:10;8.75;;;5.90;;
10440;SDS011;5268;49.346;9.522;2023-08-20T21:19:13;7.60;;;5.70;;
10440;SDS011;5268;49.346;9.522;2023-08-20T21:24:15;7.20;;;5.50;;
10440;SDS011;5268;49.346;9.522;2023-08-20T21:29:17;8.30;;;6.00;;
10440;SDS011;5268;49.346;9.522;2023-08-20T21:34:21;6.13;;;5.35;;
10440;SDS011;5268;49.346;9.522;2023-08-20T21:39:23;5.95;;;5.35;;
10440;SDS011;5268;49.346;9.522;2023-08-20T21:44:25;5.78;;;5.18;;
10440;SDS011;5268;49.346;9.522;2023-08-20T21:49:28;7.20;;;5.50;;
10440;SDS011;5268;49.346;9.522;2023-08-20T21:54:30;13.48;;;5.97;;
